Map

Track Data

SID SEASON NUMBER BASIN SUBBASIN NAME ISO_TIME NATURE LAT LON WMO_WIND WMO_PRES WMO_AGENCY TRACK_TYPE DIST2LAND LANDFALL IFLAG USA_AGENCY USA_ATCF_ID USA_LAT USA_LON USA_RECORD USA_STATUS USA_WIND USA_PRES USA_SSHS USA_R34_NE USA_R34_SE USA_R34_SW USA_R34_NW USA_R50_NE USA_R50_SE USA_R50_SW USA_R50_NW USA_R64_NE USA_R64_SE USA_R64_SW USA_R64_NW USA_POCI USA_ROCI USA_RMW USA_EYE TOKYO_LAT TOKYO_LON TOKYO_GRADE TOKYO_WIND TOKYO_PRES TOKYO_R50_DIR TOKYO_R50_LONG TOKYO_R50_SHORT TOKYO_R30_DIR TOKYO_R30_LONG TOKYO_R30_SHORT TOKYO_LAND CMA_LAT CMA_LON CMA_CAT CMA_WIND CMA_PRES HKO_LAT HKO_LON HKO_CAT HKO_WIND HKO_PRES NEWDELHI_LAT NEWDELHI_LON NEWDELHI_GRADE NEWDELHI_WIND NEWDELHI_PRES NEWDELHI_CI NEWDELHI_DP NEWDELHI_POCI REUNION_LAT REUNION_LON REUNION_TYPE REUNION_WIND REUNION_PRES REUNION_TNUM REUNION_CI REUNION_RMW REUNION_R34_NE REUNION_R34_SE REUNION_R34_SW REUNION_R34_NW REUNION_R50_NE REUNION_R50_SE REUNION_R50_SW REUNION_R50_NW REUNION_R64_NE REUNION_R64_SE REUNION_R64_SW REUNION_R64_NW BOM_LAT BOM_LON BOM_TYPE BOM_WIND BOM_PRES BOM_TNUM BOM_CI BOM_RMW BOM_R34_NE BOM_R34_SE BOM_R34_SW BOM_R34_NW BOM_R50_NE BOM_R50_SE BOM_R50_SW BOM_R50_NW BOM_R64_NE BOM_R64_SE BOM_R64_SW BOM_R64_NW BOM_ROCI BOM_POCI BOM_EYE BOM_POS_METHOD BOM_PRES_METHOD NADI_LAT NADI_LON NADI_CAT NADI_WIND NADI_PRES WELLINGTON_LAT WELLINGTON_LON WELLINGTON_WIND WELLINGTON_PRES DS824_LAT DS824_LON DS824_STAGE DS824_WIND DS824_PRES TD9636_LAT TD9636_LON TD9636_STAGE TD9636_WIND TD9636_PRES TD9635_LAT TD9635_LON TD9635_WIND TD9635_PRES TD9635_ROCI NEUMANN_LAT NEUMANN_LON NEUMANN_CLASS NEUMANN_WIND NEUMANN_PRES MLC_LAT MLC_LON MLC_CLASS MLC_WIND MLC_PRES USA_GUST BOM_GUST BOM_GUST_PER REUNION_GUST REUNION_GUST_PER USA_SEAHGT USA_SEARAD_NE USA_SEARAD_SE USA_SEARAD_SW USA_SEARAD_NW STORM_SPEED STORM_DIR
1974262N16146 1974 105 WP MM WENDY 1974-09-19 06:00:00 TS 16.2000 146.400 1006 tokyo main 2050 2050 _O____________ -1 16.2000 146.400 2 1006 0 0 0 4 256
1974262N16146 1974 105 WP MM WENDY 1974-09-19 09:00:00 TS 16.1526 146.192 main 2050 2039 _P____________ -1 16.1526 146.192 2 1006 0 0 4 255
1974262N16146 1974 105 WP MM WENDY 1974-09-19 12:00:00 TS 16.1000 146.000 1006 tokyo main 2039 2029 _O____________ -1 16.1000 146.000 2 1006 0 0 0 4 253
1974262N16146 1974 105 WP MM WENDY 1974-09-19 15:00:00 TS 16.0422 145.810 main 2029 2029 _P____________ -1 16.0422 145.810 2 1006 0 0 5 258
1974262N16146 1974 105 WP MM WENDY 1974-09-19 18:00:00 TS 16.0000 145.500 1006 tokyo main 2031 2031 _O____________ -1 16.0000 145.500 2 1006 0 0 0 8 267
1974262N16146 1974 105 WP MM WENDY 1974-09-19 21:00:00 TS 15.9926 144.960 main 2035 2035 _P____________ -1 15.9926 144.960 2 1005 0 0 12 270
1974262N16146 1974 105 WP MM WENDY 1974-09-20 00:00:00 TS 16.0000 144.300 1004 tokyo main 2043 2008 _O____________ -1 16.0000 144.300 2 1004 0 0 0 13 270
1974262N16146 1974 105 WP MM WENDY 1974-09-20 03:00:00 TS 16.0002 143.620 main 1997 1934 _P____________ -1 16.0002 143.620 2 1004 0 0 13 270
1974262N16146 1974 105 WP MM WENDY 1974-09-20 06:00:00 TS 16.0000 143.000 1004 tokyo main 1934 1892 _O____________ -1 16.0000 143.000 2 1004 0 0 0 10 270
1974262N16146 1974 105 WP MM WENDY 1974-09-20 09:00:00 TS 15.9996 142.570 main 1892 1850 _P____________ -1 15.9996 142.570 2 1005 0 0 8 270
1974262N16146 1974 105 WP MM WENDY 1974-09-20 12:00:00 TS 16.0000 142.200 1006 tokyo main 1850 1808 _O____________ -1 16.0000 142.200 2 1006 0 0 0 8 271
1974262N16146 1974 105 WP MM WENDY 1974-09-20 15:00:00 TS 16.0072 141.788 main 1808 1756 _P____________ -1 16.0072 141.788 2 1005 0 0 9 270
1974262N16146 1974 105 WP MM WENDY 1974-09-20 18:00:00 TS 16.0000 141.300 1004 tokyo main 1756 1693 _O____________ -1 16.0000 141.300 2 1004 0 0 0 11 269
1974262N16146 1974 105 WP MM WENDY 1974-09-20 21:00:00 TS 15.9804 140.628 main 1683 1618 _P____________ -1 15.9804 140.628 2 1004 0 0 13 265
1974262N16146 1974 105 WP MM WENDY 1974-09-21 00:00:00 TS 15.9000 140.000 1004 tokyo main 1618 1571 _O____________ -1 15.9000 140.000 2 1004 0 0 0 10 254
1974262N16146 1974 105 WP MM WENDY 1974-09-21 03:00:00 TS 15.7072 139.632 main 1571 1545 _P____________ -1 15.7072 139.632 2 1004 0 0 7 235
1974262N16146 1974 105 WP MM WENDY 1974-09-21 06:00:00 TS 15.5000 139.400 1004 tokyo main 1545 1522 _O____________ -1 15.5000 139.400 2 1004 0 0 0 5 231
1974262N16146 1974 105 WP MM WENDY 1974-09-21 09:00:00 TS 15.3923 139.230 main 1522 1499 _P____________ -1 15.3923 139.230 2 1004 0 0 4 243
1974262N16146 1974 105 WP MM WENDY 1974-09-21 12:00:00 TS 15.3000 139.000 1004 tokyo main 1499 1452 _O____________ -1 15.3000 139.000 2 1004 0 0 0 7 249
1974262N16146 1974 105 WP MM WENDY 1974-09-21 15:00:00 TS 15.1351 138.545 main 1442 1387 _P____________ -1 15.1351 138.545 2 1004 0 0 10 253
1974262N16146 1974 105 WP MM WENDY 1974-09-21 18:00:00 TS 15.0000 138.000 1004 tokyo main 1387 1345 _O____________ -1 15.0000 138.000 2 1004 0 0 0 10 260
1974262N16146 1974 105 WP MM WENDY 1974-09-21 21:00:00 TS 14.9767 137.575 main 1345 1282 _P____________ -1 14.9767 137.575 2 1004 0 0 10 270
1974262N16146 1974 105 WP MM WENDY 1974-09-22 00:00:00 TS 15.0000 137.000 1004 tokyo main 1282 1188 _O____________ -1 15.0000 137.000 2 1004 0 0 0 15 271
1974262N16146 1974 105 WP MM WENDY 1974-09-22 03:00:00 TS 15.0004 136.075 main 1188 1084 _P____________ -1 15.0004 136.075 2 1004 0 0 19 270
1974262N16146 1974 105 WP MM WENDY 1974-09-22 06:00:00 TS 15.0000 135.000 1004 tokyo main 1073 981 _O____________ -1 15.0000 135.000 2 1004 0 0 0 20 270
1974262N16146 1974 105 WP MM WENDY 1974-09-22 09:00:00 TS 14.9996 134.000 main 971 879 _P____________ -1 14.9996 134.000 2 1004 0 0 19 270
1974262N16146 1974 105 WP MM WENDY 1974-09-22 12:00:00 TS 15.0000 133.000 1004 tokyo main 869 779 _O____________ -1 15.0000 133.000 2 1004 0 0 0 19 270
1974262N16146 1974 105 WP MM WENDY 1974-09-22 15:00:00 TS 15.0071 132.000 main 769 681 _P____________ -1 15.0071 132.000 2 1004 0 0 19 270
1974262N16146 1974 105 WP MM WENDY 1974-09-22 18:00:00 TS 15.0000 131.000 1004 tokyo main 672 572 _O____________ -1 15.0000 131.000 2 1004 0 0 0 20 268
1974262N16146 1974 105 WP MM WENDY 1974-09-22 21:00:00 TS 14.9354 129.925 main 563 518 _P____________ -1 14.9354 129.925 2 1005 0 0 16 268
1974262N16146 1974 105 WP MM WENDY 1974-09-23 00:00:00 TS 14.9444 129.333 1006 tokyo main 510 497 OOO______OOO__ jtwc_wp WP241974 15.0000 129.500 20 -1 14.9000 129.000 2 1006 0 0 0 14.9000 130.000 0 19 1008 15.0000 129.500 TC 20 15.0000 129.500 1 20 15.0000 129.500 20 1006 120 10 285
1974262N16146 1974 105 WP MM WENDY 1974-09-23 03:00:00 TS 15.2078 128.893 main 497 472 PPP______PPP__ WP241974 15.2503 128.948 20 -1 14.9616 128.440 2 1006 0 0 15.5377 129.561 0 19 1007 15.2503 128.948 TC 20 15.2429 128.965 1 20 15.2503 128.948 20 1006 150 10 303
1974262N16146 1974 105 WP MM WENDY 1974-09-23 06:00:00 TS 15.5087 128.430 1006 tokyo main 466 432 OOO______OPO__ jtwc_wp WP241974 15.5000 128.400 20 -1 15.1000 128.000 2 1006 0 0 0 16.1000 129.100 0 19 1006 15.5000 128.400 TC 20 15.4882 128.423 1 20 15.5000 128.400 20 1006 180 11 302
1974262N16146 1974 105 WP MM WENDY 1974-09-23 09:00:00 TS 15.7973 127.906 main 432 399 PPP______PPP__ WP241974 15.7498 127.857 20 -1 15.2701 127.400 2 1006 0 0 16.5247 128.595 0 19 1006 15.7498 127.857 TC 20 15.7394 127.870 1 20 15.7498 127.857 20 1006 240 12 297
1974262N16146 1974 105 WP MM WENDY 1974-09-23 12:00:00 TS 16.0500 127.333 1006 tokyo main 397 364 OOO______OOO__ jtwc_wp WP241974 16.0000 127.300 20 -1 15.5000 126.800 2 1006 0 0 0 16.8000 128.000 0 19 1006 16.0000 127.300 TC 20 16.0000 127.300 1 20 16.0000 127.300 20 1006 300 12 293
1974262N16146 1974 105 WP MM WENDY 1974-09-23 15:00:00 TS 16.2869 126.727 main 364 343 PPP______PPP__ WP241974 16.2425 126.700 22 -1 15.7773 126.285 2 1005 0 0 16.9452 127.265 0 19 1006 16.2425 126.700 TC 22 16.2719 126.712 1 21 16.2425 126.700 22 1005 300 13 292
1974262N16146 1974 105 WP MM WENDY 1974-09-23 18:00:00 TS 16.5250 126.120 1004 tokyo main 340 330 OOO______OPO__ jtwc_wp WP241974 16.5000 126.100 25 -1 16.1000 125.800 2 1004 0 0 0 17.0000 126.500 0 19 1006 16.5000 126.100 TC 25 16.5501 126.120 1 22 16.5000 126.100 25 1005 300 12 293
1974262N16146 1974 105 WP MM WENDY 1974-09-23 21:00:00 TS 16.7779 125.537 main 319 265 PPP______PPP__ WP241974 16.7924 125.527 25 -1 16.4350 125.277 2 1004 0 0 17.0273 125.820 0 24 1005 16.7924 125.527 TC 25 16.8282 125.543 1 23 16.7924 125.527 25 1004 300 12 296
1974262N16146 1974 105 WP MM WENDY 1974-09-24 00:00:00 TS 17.0500 125.000 1004 tokyo main 266 215 OOO______OOO__ jtwc_wp WP241974 17.1000 125.000 25 -1 16.8000 124.800 2 1004 0 0 0 17.1000 125.200 1 29 1004 17.1000 125.000 TC 25 17.1000 125.000 1 25 17.1000 125.000 25 1004 300 11 301
1974262N16146 1974 105 WP MM WENDY 1974-09-24 03:00:00 TS 17.3606 124.521 main 217 182 PPP______PPP__ WP241974 17.4148 124.535 27 -1 17.2148 124.420 2 1002 0 0 17.3275 124.598 1 29 1002 17.4148 124.535 TC 27 17.3769 124.506 1 27 17.4148 124.535 27 1003 300 11 305
1974262N16146 1974 105 WP MM WENDY 1974-09-24 06:00:00 TS 17.6631 124.088 1000 tokyo main 185 153 OOOO_____OPO__ jtwc_wp WP241974 17.7000 124.100 30 -1 17.6000 124.100 2 1000 0 0 0 17.6000 124.100 1 29 1001 17.8000 124.000 TD 25 1002 17.7000 124.100 TC 30 17.6442 124.047 1 30 17.7000 124.100 30 1002 300 10 304
1974262N16146 1974 105 WP MM WENDY 1974-09-24 09:00:00 TS 17.9043 123.680 main 153 107 PPPP_____PPP__ WP241974 17.9299 123.642 32 -1 17.8872 123.822 2 1000 0 0 17.8072 123.762 1 29 1000 18.0077 123.590 TD 27 1002 17.9299 123.642 TC 32 17.8895 123.615 1 32 17.9299 123.642 32 1001 300 9 300
1974262N16146 1974 105 WP MM WENDY 1974-09-24 12:00:00 TS 18.0963 123.289 1000 tokyo main 107 64 OOOO_____OOO__ jtwc_wp WP241974 18.1000 123.200 35 0 18.1000 123.500 2 1000 0 0 0 18.0000 123.500 1 29 999 18.2000 123.200 TD 30 1002 18.1000 123.200 TC 35 18.1000 123.200 2 35 18.1000 123.200 35 1000 300 8 294
1974262N16146 1974 105 WP MM WENDY 1974-09-24 15:00:00 TS 18.2441 122.887 main 64 21 PPPP_____PPP__ WP241974 18.2074 122.792 37 0 18.2651 123.030 2 1000 0 0 18.1999 123.215 1 29 999 18.3649 122.842 TD 32 1002 18.2074 122.792 TC 37 18.2569 122.745 2 36 18.2074 122.792 37 1000 270 8 290
1974262N16146 1974 105 WP MM WENDY 1974-09-24 18:00:00 TS 18.3686 122.487 1000 tokyo main 21 0 OOOO_____OPO__ jtwc_wp WP241974 18.3000 122.400 40 0 18.4000 122.500 9 1000 0 0 0 18.4000 122.900 1 29 999 18.5000 122.500 TS 35 1002 18.3000 122.400 TC 40 18.3802 122.309 2 37 18.3000 122.400 40 1000 240 8 289
1974262N16146 1974 105 WP MM WENDY 1974-09-24 21:00:00 TS 18.5115 122.072 main 11 11 PPPP_____PPP__ WP241974 18.4350 121.985 40 0 18.5501 121.963 9 1000 0 0 18.6225 122.515 1 29 999 18.6149 122.150 TS 35 1000 18.4350 121.985 TC 40 18.4883 121.920 2 38 18.4350 121.985 40 1000 240 8 291
1974262N16146 1974 105 WP MM WENDY 1974-09-25 00:00:00 TS 18.6571 121.686 1000 tokyo main 35 24 OOOO_____OOO__ jtwc_wp WP241974 18.6000 121.600 40 0 18.7000 121.500 9 1000 0 0 0 18.8000 122.100 1 29 999 18.7000 121.800 TS 35 998 18.6000 121.600 TC 40 18.6000 121.600 2 40 18.6000 121.600 40 1000 240 8 293
1974262N16146 1974 105 WP MM WENDY 1974-09-25 03:00:00 TS 18.8043 121.338 main 33 33 PPPP_____PPP__ WP241974 18.8075 121.240 40 0 18.8498 121.197 9 999 0 0 18.8576 121.670 1 33 997 18.7501 121.420 TS 35 997 18.8075 121.240 TC 40 18.7505 121.362 2 40 18.8075 121.240 40 999 240 6 297
1974262N16146 1974 105 WP MM WENDY 1974-09-25 06:00:00 TS 18.9439 121.085 998 tokyo main 39 39 OOOO_____OPO__ jtwc_wp WP241974 19.0000 121.000 40 0 19.0000 121.000 9 998 0 0 0 18.9000 121.300 2 38 995 18.8000 121.100 TS 35 996 19.0000 121.000 TC 40 18.9070 121.195 2 40 19.0000 121.000 40 998 240 4 307
1974262N16146 1974 105 WP MM WENDY 1974-09-25 09:00:00 TS 19.0710 120.964 main 56 55 PPPP_____PPP__ WP241974 19.1149 120.962 40 0 19.1650 120.827 9 997 0 0 19.0424 121.040 2 38 995 18.8849 120.912 TS 35 996 19.1149 120.962 TC 40 19.0600 121.081 2 40 19.1149 120.962 40 997 270 3 326
1974262N16146 1974 105 WP MM WENDY 1974-09-25 12:00:00 TS 19.1857 120.914 996 tokyo main 67 67 OOOO_____OOO__ jtwc_wp WP241974 19.2000 121.000 40 0 19.3000 120.700 9 996 0 0 0 19.2000 120.900 2 38 995 19.0000 120.800 TS 35 996 19.2000 121.000 TC 40 19.2000 121.000 2 40 19.2000 121.000 40 996 300 2 332
1974262N16146 1974 105 WP MM WENDY 1974-09-25 15:00:00 TS 19.2871 120.846 main 78 78 PPPP_____PPP__ WP241974 19.3000 120.958 40 0 19.3575 120.562 9 996 0 0 19.3000 120.870 2 38 995 19.1500 120.700 TS 35 996 19.3000 120.958 TC 40 19.3021 120.917 2 40 19.3000 120.958 40 996 300 2 331
1974262N16146 1974 105 WP MM WENDY 1974-09-25 18:00:00 TS 19.3846 120.795 996 tokyo main 89 89 OOOO_____OPO__ jtwc_wp WP241974 19.4000 120.900 40 0 19.4000 120.500 9 996 0 0 0 19.4000 120.900 2 38 995 19.3000 120.600 TS 35 996 19.4000 120.900 TC 40 19.3924 120.862 2 40 19.4000 120.900 40 996 300 2 336
1974262N16146 1974 105 WP MM WENDY 1974-09-25 21:00:00 TS 19.4824 120.756 main 100 100 PPPP_____PPP__ WP241974 19.4925 120.850 40 0 19.4850 120.570 9 996 0 0 19.5425 120.900 2 38 995 19.3850 120.442 TS 35 997 19.4925 120.850 TC 40 19.4865 120.826 2 40 19.4925 120.850 40 996 270 2 344
1974262N16146 1974 105 WP MM WENDY 1974-09-26 00:00:00 TS 19.6000 120.729 996 tokyo main 112 112 OOOO_____OOO__ jtwc_wp WP241974 19.6000 120.800 40 0 19.6000 120.700 9 996 0 0 0 19.7000 120.900 2 38 995 19.5000 120.300 TS 35 998 19.6000 120.800 TC 40 19.6000 120.800 2 40 19.6000 120.800 40 996 240 3 352
1974262N16146 1974 105 WP MM WENDY 1974-09-26 03:00:00 TS 19.7508 120.711 main 134 134 PPPP_____PPP__ WP241974 19.7350 120.743 42 0 19.7275 120.822 9 996 0 0 19.8425 120.922 2 43 994 19.7350 120.235 TS 37 996 19.7350 120.743 TC 42 19.7453 120.768 2 42 19.7350 120.743 42 995 240 3 352
1974262N16146 1974 105 WP MM WENDY 1974-09-26 06:00:00 TS 19.9304 120.692 996 tokyo main 145 145 OOOO_____OPO__ jtwc_wp WP241974 19.9000 120.700 45 0 19.9000 120.900 9 996 0 0 0 20.0000 120.900 3 48 993 20.0000 120.200 TS 40 994 19.9000 120.700 TC 45 19.9125 120.742 2 45 19.9000 120.700 45 995 240 4 353
1974262N16146 1974 105 WP MM WENDY 1974-09-26 09:00:00 TS 20.1291 120.658 main 168 168 PPPP_____PPP__ WP241974 20.0850 120.700 47 0 20.1500 120.888 9 994 0 0 20.1925 120.765 3 48 993 20.2075 120.135 TS 42 993 20.0850 120.700 TC 47 20.0984 120.721 2 47 20.0850 120.700 47 994 270 4 350
1974262N16146 1974 105 WP MM WENDY 1974-09-26 12:00:00 TS 20.3429 120.614 992 tokyo main 179 156 OOOO_____OOO__ jtwc_wp WP241974 20.3000 120.700 50 0 20.4000 120.800 9 992 0 0 0 20.4000 120.600 3 48 993 20.4000 120.100 TS 45 992 20.3000 120.700 TC 50 20.3000 120.700 2 50 20.3000 120.700 50 993 300 4 346
1974262N16146 1974 105 WP MM WENDY 1974-09-26 15:00:00 TS 20.5531 120.544 main 146 124 PPPP_____PPP__ WP241974 20.5500 120.650 50 0 20.5351 120.643 9 992 0 0 20.6000 120.470 3 48 992 20.5925 120.113 TS 45 992 20.5500 120.650 TC 50 20.4943 120.631 2 50 20.5500 120.650 50 993 300 4 345
1974262N16146 1974 105 WP MM WENDY 1974-09-26 18:00:00 TS 20.7721 120.495 992 tokyo main 124 102 OOOO_____OPO__ jtwc_wp WP241974 20.8000 120.600 50 0 20.7000 120.500 9 992 0 0 0 20.8000 120.400 3 48 992 20.8000 120.200 TS 45 992 20.8000 120.600 TC 50 20.7048 120.568 2 50 20.8000 120.600 50 993 300 4 353
1974262N16146 1974 105 WP MM WENDY 1974-09-26 21:00:00 TS 20.9957 120.486 main 102 78 PPPP_____PPP__ WP241974 20.9924 120.555 50 0 21.0498 120.418 9 991 0 0 20.9699 120.398 3 48 992 21.0350 120.377 TS 45 991 20.9924 120.555 TC 50 20.9379 120.547 2 50 20.9924 120.555 50 992 300 5 9
1974262N16146 1974 105 WP MM WENDY 1974-09-27 00:00:00 TS 21.2429 120.571 990 tokyo main 78 44 OOOO_____OOO__ jtwc_wp WP241974 21.2000 120.600 50 0 21.4000 120.500 9 990 0 0 0 21.2000 120.500 3 48 992 21.3000 120.600 TS 45 990 21.2000 120.600 TC 50 21.2000 120.600 2 50 21.2000 120.600 50 992 300 6 29
1974262N16146 1974 105 WP MM WENDY 1974-09-27 03:00:00 TS 21.5186 120.798 main 44 15 PPPP_____PPP__ WP241974 21.4776 120.812 52 0 21.5354 120.870 9 987 0 0 21.5775 120.705 3 48 991 21.5999 120.793 TS 47 987 21.4776 120.812 TC 52 21.4844 120.779 2 52 21.4776 120.812 52 990 300 8 40
1974262N16146 1974 105 WP MM WENDY 1974-09-27 06:00:00 TS 21.8283 121.090 985 tokyo main 23 20 OOOO_____OPO__ jtwc_wp WP241974 21.8000 121.100 55 0 21.7000 121.300 9 985 0 0 0 22.0000 121.000 3 48 990 21.9000 121.000 STS 50 985 21.8000 121.100 TC 55 21.7980 121.032 2 55 21.8000 121.100 55 988 300 8 38
1974262N16146 1974 105 WP MM WENDY 1974-09-27 09:00:00 TS 22.1585 121.344 main 41 41 PPPP_____PPP__ WP241974 22.1274 121.343 57 0 22.1123 121.515 9 985 0 0 22.3500 121.328 3 53 987 22.1274 121.220 STS 52 985 22.1274 121.343 TC 57 22.1375 121.319 2 57 22.1274 121.343 57 986 300 9 35
1974262N16146 1974 105 WP MM WENDY 1974-09-27 12:00:00 TS 22.5286 121.614 985 tokyo main 60 52 OOOO_____OOO__ jtwc_wp WP241974 22.5000 121.600 60 0 22.6000 121.700 9 985 0 0 0 22.7000 121.700 3 58 984 22.4000 121.500 STS 55 985 22.5000 121.600 TC 60 22.5000 121.600 2 60 22.5000 121.600 60 984 300 10 35
1974262N16146 1974 105 WP MM WENDY 1974-09-27 15:00:00 TS 22.9598 121.962 main 62 61 PPPP_____PPP__ WP241974 22.9501 121.922 60 0 23.0226 122.015 9 985 0 0 23.1078 122.159 3 58 984 22.8353 121.922 STS 55 985 22.9501 121.922 TC 60 22.9029 121.874 2 60 22.9501 121.922 60 985 270 11 35
1974262N16146 1974 105 WP MM WENDY 1974-09-27 18:00:00 TS 23.3889 122.261 985 tokyo main 88 82 OOOO_____OPO__ jtwc_wp WP241974 23.4000 122.200 60 0 23.4000 122.300 9 985 0 0 0 23.5000 122.500 3 58 984 23.3000 122.300 STS 55 985 23.4000 122.200 TC 60 23.3225 122.126 2 60 23.4000 122.200 60 986 240 9 27
1974262N16146 1974 105 WP MM WENDY 1974-09-27 21:00:00 TS 23.7436 122.405 main 91 67 PPPP_____PPP__ WP241974 23.7649 122.353 60 0 23.7074 122.460 9 985 0 0 23.8223 122.533 3 58 984 23.6498 122.468 STS 55 985 23.7649 122.353 TC 60 23.7309 122.315 2 60 23.7649 122.353 60 986 240 7 13
1974262N16146 1974 105 WP MM WENDY 1974-09-28 00:00:00 TS 24.0714 122.429 985 tokyo main 67 51 OOOO_____OOO__ jtwc_wp WP241974 24.1000 122.400 60 0 24.0000 122.500 9 985 0 0 0 24.1000 122.400 3 58 984 24.0000 122.500 STS 55 985 24.1000 122.400 TC 60 24.1000 122.400 2 60 24.1000 122.400 60 987 240 7 358
1974262N16146 1974 105 WP MM WENDY 1974-09-28 03:00:00 TS 24.4420 122.397 main 51 41 PPPP_____PPP__ WP241974 24.4799 122.410 55 0 24.3799 122.453 9 985 0 0 24.3800 122.258 3 58 985 24.4649 122.503 STS 50 985 24.4799 122.410 TC 55 24.4296 122.334 2 52 24.4799 122.410 55 986 240 7 348
1974262N16146 1974 105 WP MM WENDY 1974-09-28 06:00:00 TS 24.7589 122.266 985 tokyo main 37 10 OOOO_____OPO__ jtwc_wp WP241974 24.8000 122.300 50 0 24.7000 122.300 9 985 0 0 0 24.6000 122.100 3 58 986 24.9000 122.400 TS 45 985 24.8000 122.300 TC 50 24.7126 122.164 2 45 24.8000 122.300 50 986 240 6 328
1974262N16146 1974 105 WP MM WENDY 1974-09-28 09:00:00 TS 24.9660 122.037 main 0 0 PPPP_____PPP__ WP241974 25.0027 122.023 40 0 24.8600 122.080 9 985 0 0 24.7300 121.985 3 58 986 25.2250 122.188 TS 37 987 25.0027 122.023 TC 40 24.9392 121.937 2 37 25.0027 122.023 40 985 270 5 305
1974262N16146 1974 105 WP MM WENDY 1974-09-28 12:00:00 TS 25.0714 121.771 985 tokyo main 10 0 OOOO_____OOO__ jtwc_wp WP241974 25.1000 121.700 30 -1 24.9000 121.800 9 985 0 0 0 24.8000 121.900 3 58 986 25.4000 121.900 TD 30 990 25.1000 121.700 TC 30 25.1000 121.700 1 30 25.1000 121.700 30 985 300 5 286
1974262N16146 1974 105 WP MM WENDY 1974-09-28 15:00:00 TS 25.0904 121.552 main 0 0 PPPP_____PPP__ WP241974 25.1149 121.477 30 -1 24.8501 121.492 9 989 0 0 24.8650 121.842 3 58 986 25.3875 121.600 TD 30 992 25.1149 121.477 TC 30 25.1857 121.500 1 30 25.1149 121.477 30 986 270 4 270
1974262N16146 1974 105 WP MM WENDY 1974-09-28 18:00:00 TS 25.0729 121.358 994 tokyo main 0 0 OOOO_____OPO__ jtwc_wp WP241974 25.1000 121.300 30 -1 24.8000 121.200 9 994 0 0 0 24.9000 121.800 3 58 986 25.3000 121.300 TD 30 995 25.1000 121.300 TC 30 25.2101 121.304 1 30 25.1000 121.300 30 987 240 3 271
1974262N16146 1974 105 WP MM WENDY 1974-09-28 21:00:00 TS 25.0949 121.177 main 0 0 PPPP_____PPP__ WP241974 25.1425 121.128 30 -1 24.8700 120.948 9 997 0 0 24.8850 121.742 3 53 988 25.2775 121.035 TD 27 997 25.1425 121.128 TC 30 25.2045 121.132 1 30 25.1425 121.128 30 993 210 3 284
1974262N16146 1974 105 WP MM WENDY 1974-09-29 00:00:00 TS 25.1429 121.043 1000 tokyo main 11 11 OOOO_____OOO__ jtwc_wp WP241974 25.2000 121.000 30 -1 25.0000 120.800 9 1000 0 0 0 24.9000 121.700 3 48 990 25.3000 120.800 TD 25 1000 25.2000 121.000 TC 30 25.2000 121.000 1 30 25.2000 121.000 30 1000 180 2 304
1974262N16146 1974 105 WP MM WENDY 1974-09-29 03:00:00 TS 25.2209 120.973 main 22 22 PPPP_____PPP__ WP241974 25.2500 120.927 27 -1 25.1425 120.812 9 1000 0 0 25.0425 121.722 3 48 992 25.3850 120.563 TD 25 1000 25.2500 120.927 TC 27 25.2264 120.928 1 28 25.2500 120.927 27 1000 180 2 331
1974262N16146 1974 105 WP MM WENDY 1974-09-29 06:00:00 TS 25.3089 120.943 1000 tokyo main 34 34 OOOO_____OPO__ jtwc_wp WP241974 25.3000 120.900 25 -1 25.3000 120.900 2 1000 0 0 0 25.2000 121.700 3 48 995 25.5000 120.400 TD 25 1000 25.3000 120.900 TC 25 25.2624 120.897 1 27 25.3000 120.900 25 1001 180 2 340
1974262N16146 1974 105 WP MM WENDY 1974-09-29 09:00:00 TS 25.3746 120.915 main 45 45 PPPP_____PPP__ WP241974 25.3350 120.893 25 -1 25.4575 120.957 2 1001 0 0 25.2501 121.515 3 43 996 25.5925 120.362 TD 25 1001 25.3350 120.893 TC 25 25.3171 120.893 1 26 25.3350 120.893 25 1001 150 2 345
1974262N16146 1974 105 WP MM WENDY 1974-09-29 12:00:00 TS 25.4571 120.900 1002 tokyo main 53 53 OOOO_____OOO__ jtwc_wp WP241974 25.4000 120.900 25 -1 25.6000 121.000 2 1002 0 0 0 25.3000 121.300 2 38 998 25.7000 120.400 TD 25 1002 25.4000 120.900 TC 25 25.4000 120.900 1 25 25.4000 120.900 25 1002 120 2 349
1974262N16146 1974 105 WP MM WENDY 1974-09-29 15:00:00 TS 25.5873 120.876 main 63 63 PPPP_____PPP__ WP241974 25.5350 120.900 22 -1 25.7075 121.008 2 1003 0 0 25.4350 121.170 2 33 999 25.8424 120.405 TD 25 1004 25.5350 120.900 TC 22 25.5211 120.849 1 23 25.5350 120.900 22 1002 120 3 0
1974262N16146 1974 105 WP MM WENDY 1974-09-29 18:00:00 TS 25.7288 120.887 1004 tokyo main 73 73 OOOO_____OPO__ jtwc_wp WP241974 25.7000 120.900 20 -1 25.8000 121.000 2 1004 0 0 0 25.6000 121.100 1 29 1000 26.0000 120.500 TD 25 1006 25.7000 120.900 TC 20 25.6697 120.811 1 22 25.7000 120.900 20 1003 120 3 0
1974262N16146 1974 105 WP MM WENDY 1974-09-29 21:00:00 TS 25.8595 120.892 main 92 92 PPPP_____PPP__ WP241974 25.8499 120.855 20 -1 25.8924 120.963 2 1004 0 0 25.7350 121.077 1 26 1001 26.1528 120.752 TD 25 1007 25.8499 120.855 TC 20 25.8334 120.817 1 21 25.8499 120.855 20 1003 120 3 12
1974262N16146 1974 105 WP MM WENDY 1974-09-30 00:00:00 TS 26.0000 120.950 1004 tokyo main 97 97 OOOO_____OOO__ jtwc_wp WP241974 26.0000 120.900 20 -1 26.0000 121.000 2 1004 0 0 0 25.9000 121.100 1 23 1002 26.3000 121.100 TD 25 1008 26.0000 120.900 TC 20 26.0000 120.900 1 20 26.0000 120.900 20 1004 120 4 39
1974262N16146 1974 105 WP MM WENDY 1974-09-30 03:00:00 TS 26.1486 121.156 main 102 102 PPP______PPP__ WP241974 26.1502 121.162 20 -1 26.1426 121.220 2 1005 0 0 26.1300 121.145 1 23 1003 TD 26.1502 121.162 TC 20 26.1593 121.080 1 20 26.1502 121.162 20 1005 90 5 56
1974262N16146 1974 105 WP MM WENDY 1974-09-30 06:00:00 TS 26.3078 121.454 1006 tokyo main 122 122 OOO______OPO__ jtwc_wp WP241974 26.3000 121.500 20 -1 26.3000 121.500 2 1006 0 0 0 26.4000 121.200 1 23 1005 26.3000 121.500 TC 20 26.3110 121.341 1 20 26.3000 121.500 20 1006 60 6 60
1974262N16146 1974 105 WP MM WENDY 1974-09-30 09:00:00 TS 26.4435 121.718 main 134 134 PP_______PPP__ WP241974 26.4499 121.775 20 -1 26.4272 121.663 2 1007 0 0 1 26.4499 121.775 TC 20 26.4571 121.657 1 20 26.4499 121.775 20 1007 60 5 57
1974262N16146 1974 105 WP MM WENDY 1974-09-30 12:00:00 TS 26.6000 121.950 1008 tokyo main 161 156 OO_______OOO__ jtwc_wp WP241974 26.6000 122.000 20 -1 26.6000 121.900 2 1008 0 0 0 26.6000 122.000 TC 20 26.6000 122.000 1 20 26.6000 122.000 20 1008 60 7 51
1974262N16146 1974 105 WP MM WENDY 1974-09-30 15:00:00 TS 26.8926 122.347 main 166 166 _P____________ WP241974 -1 26.8926 122.347 2 1008 0 0 TC 1 10 55
1974262N16146 1974 105 WP MM WENDY 1974-09-30 18:00:00 TS 27.2000 122.900 1008 tokyo main 177 177 _O____________ -1 27.2000 122.900 2 1008 0 0 0 1 10 60
1974262N16146 1974 105 WP MM WENDY 1974-09-30 21:00:00 TS 27.3977 123.324 main 194 194 _P____________ -1 27.3977 123.324 2 1008 0 0 1 11 68
1974262N16146 1974 105 WP MM WENDY 1974-10-01 00:00:00 TS 27.6000 124.000 1008 tokyo main 248 248 _O____________ -1 27.6000 124.000 2 1008 0 0 0 17 74
1974262N16146 1974 105 WP MM WENDY 1974-10-01 03:00:00 TS 27.8801 125.190 main 344 344 _P____________ -1 27.8801 125.190 2 1008 0 0 25 76
1974262N16146 1974 105 WP MM WENDY 1974-10-01 06:00:00 TS 28.2000 126.700 1008 tokyo main 471 _O____________ -1 28.2000 126.700 2 1008 0 0 0 27 76

Digital Typhoon Data and Search

About IBTrACS Database

This database is a web-friendly format of International Best Track Archive for Climate Stewardship (IBTrACS), a global best track data archive curated by NOAA dating back to 1842.

Updated: 2021-12-03